sensor_id;sensor_type;location;lat;lon;timestamp;pressure;altitude;pressure_sealevel;temperature;humidity
46199;BME280;31928;52.104;10.030;2022-10-17T00:00:34;100927.28;;;20.14;50.24
46199;BME280;31928;52.104;10.030;2022-10-17T00:03:00;100919.38;;;20.13;50.15
46199;BME280;31928;52.104;10.030;2022-10-17T00:05:27;100928.63;;;20.12;49.82
46199;BME280;31928;52.104;10.030;2022-10-17T00:07:53;100927.00;;;20.11;50.20
46199;BME280;31928;52.104;10.030;2022-10-17T00:10:20;100933.78;;;20.08;50.29
46199;BME280;31928;52.104;10.030;2022-10-17T00:12:47;100925.03;;;20.06;49.83
46199;BME280;31928;52.104;10.030;2022-10-17T00:15:14;100921.78;;;20.04;50.01
46199;BME280;31928;52.104;10.030;2022-10-17T00:17:41;100923.13;;;20.02;50.21
46199;BME280;31928;52.104;10.030;2022-10-17T00:20:07;100922.53;;;20.00;50.08
46199;BME280;31928;52.104;10.030;2022-10-17T00:22:34;100916.56;;;19.98;50.48
46199;BME280;31928;52.104;10.030;2022-10-17T00:25:01;100919.78;;;19.95;49.96
46199;BME280;31928;52.104;10.030;2022-10-17T00:27:28;100917.59;;;19.92;50.26
46199;BME280;31928;52.104;10.030;2022-10-17T00:29:55;100919.69;;;19.90;50.66
46199;BME280;31928;52.104;10.030;2022-10-17T00:32:21;100911.81;;;19.88;50.55
46199;BME280;31928;52.104;10.030;2022-10-17T00:34:47;100902.81;;;19.88;50.32
46199;BME280;31928;52.104;10.030;2022-10-17T00:37:14;100905.53;;;19.88;50.28
46199;BME280;31928;52.104;10.030;2022-10-17T00:39:40;100904.72;;;19.88;50.46
46199;BME280;31928;52.104;10.030;2022-10-17T00:42:09;100893.00;;;19.87;50.37
46199;BME280;31928;52.104;10.030;2022-10-17T00:47:03;100887.56;;;19.87;50.62
46199;BME280;31928;52.104;10.030;2022-10-17T00:49:32;100887.56;;;19.87;50.29
46199;BME280;31928;52.104;10.030;2022-10-17T00:52:00;100893.00;;;19.87;50.59
46199;BME280;31928;52.104;10.030;2022-10-17T00:54:29;100882.13;;;19.87;50.36
46199;BME280;31928;52.104;10.030;2022-10-17T00:56:56;100893.00;;;19.87;50.57
46199;BME280;31928;52.104;10.030;2022-10-17T00:59:23;100885.91;;;19.86;50.72
46199;BME280;31928;52.104;10.030;2022-10-17T01:01:51;100889.75;;;19.85;50.83
46199;BME280;31928;52.104;10.030;2022-10-17T01:04:19;100886.44;;;19.83;50.64
46199;BME280;31928;52.104;10.030;2022-10-17T01:06:46;100888.09;;;19.84;50.45
46199;BME280;31928;52.104;10.030;2022-10-17T01:09:12;100881.81;;;19.84;50.65
46199;BME280;31928;52.104;10.030;2022-10-17T01:14:28;100882.66;;;19.84;50.64
46199;BME280;31928;52.104;10.030;2022-10-17T01:19:54;100886.44;;;19.83;51.01
46199;BME280;31928;52.104;10.030;2022-10-17T01:32:46;100879.88;;;19.79;51.03
46199;BME280;31928;52.104;10.030;2022-10-17T01:35:19;100872.00;;;19.78;51.00
46199;BME280;31928;52.104;10.030;2022-10-17T01:40:28;100878.25;;;19.78;50.82
46199;BME280;31928;52.104;10.030;2022-10-17T01:43:04;100881.22;;;19.77;51.15
46199;BME280;31928;52.104;10.030;2022-10-17T01:45:36;100874.97;;;19.76;51.41
46199;BME280;31928;52.104;10.030;2022-10-17T01:48:11;100866.81;;;19.76;51.20
46199;BME280;31928;52.104;10.030;2022-10-17T01:50:44;100868.44;;;19.77;51.31
46199;BME280;31928;52.104;10.030;2022-10-17T01:53:13;100855.94;;;19.76;51.68
46199;BME280;31928;52.104;10.030;2022-10-17T01:55:43;100854.81;;;19.77;51.60
46199;BME280;31928;52.104;10.030;2022-10-17T01:58:12;100851.03;;;19.78;51.57
46199;BME280;31928;52.104;10.030;2022-10-17T02:00:41;100852.69;;;19.79;51.30
46199;BME280;31928;52.104;10.030;2022-10-17T02:03:09;100855.94;;;19.81;51.74
46199;BME280;31928;52.104;10.030;2022-10-17T02:05:39;100848.88;;;19.80;51.66
46199;BME280;31928;52.104;10.030;2022-10-17T02:08:06;100857.59;;;19.82;51.51
46199;BME280;31928;52.104;10.030;2022-10-17T02:10:43;100848.34;;;19.83;51.67
46199;BME280;31928;52.104;10.030;2022-10-17T02:20:46;100847.91;;;19.91;52.45
46199;BME280;31928;52.104;10.030;2022-10-17T02:23:19;100859.34;;;19.93;52.63
46199;BME280;31928;52.104;10.030;2022-10-17T02:25:59;100844.13;;;19.97;52.49
46199;BME280;31928;52.104;10.030;2022-10-17T02:28:30;100836.50;;;19.99;52.66
46199;BME280;31928;52.104;10.030;2022-10-17T02:31:01;100840.59;;;20.01;52.31
46199;BME280;31928;52.104;10.030;2022-10-17T02:33:40;100836.53;;;20.04;52.63
46199;BME280;31928;52.104;10.030;2022-10-17T02:36:16;100844.22;;;20.07;52.86
46199;BME280;31928;52.104;10.030;2022-10-17T02:38:45;100832.78;;;20.10;52.74
46199;BME280;31928;52.104;10.030;2022-10-17T02:41:12;100824.34;;;20.11;52.40
46199;BME280;31928;52.104;10.030;2022-10-17T02:43:41;100839.34;;;20.14;52.41
46199;BME280;31928;52.104;10.030;2022-10-17T02:46:11;100844.25;;;20.17;52.54
46199;BME280;31928;52.104;10.030;2022-10-17T02:48:46;100826.03;;;20.17;52.42
46199;BME280;31928;52.104;10.030;2022-10-17T02:51:26;100827.41;;;20.20;52.20
46199;BME280;31928;52.104;10.030;2022-10-17T02:59:28;100834.22;;;20.22;52.36
46199;BME280;31928;52.104;10.030;2022-10-17T03:01:57;100848.66;;;20.23;52.61
46199;BME280;31928;52.104;10.030;2022-10-17T03:04:23;100838.56;;;20.23;53.17
46199;BME280;31928;52.104;10.030;2022-10-17T03:06:50;100851.09;;;20.24;52.43
46199;BME280;31928;52.104;10.030;2022-10-17T03:09:16;100836.69;;;20.24;52.40
46199;BME280;31928;52.104;10.030;2022-10-17T03:11:43;100835.03;;;20.23;52.69
46199;BME280;31928;52.104;10.030;2022-10-17T03:14:09;100827.66;;;20.23;52.51
46199;BME280;31928;52.104;10.030;2022-10-17T03:16:36;100829.59;;;20.23;52.16
46199;BME280;31928;52.104;10.030;2022-10-17T03:19:02;100849.44;;;20.23;52.50
46199;BME280;31928;52.104;10.030;2022-10-17T03:21:28;100853.81;;;20.24;52.13
46199;BME280;31928;52.104;10.030;2022-10-17T03:23:55;100856.56;;;20.24;52.38
46199;BME280;31928;52.104;10.030;2022-10-17T03:26:21;100860.09;;;20.25;52.38
46199;BME280;31928;52.104;10.030;2022-10-17T03:28:48;100850.28;;;20.24;52.21
46199;BME280;31928;52.104;10.030;2022-10-17T03:31:19;100851.09;;;20.24;52.10
46199;BME280;31928;52.104;10.030;2022-10-17T03:33:45;100851.38;;;20.23;52.37
46199;BME280;31928;52.104;10.030;2022-10-17T03:36:13;100857.34;;;20.25;52.01
46199;BME280;31928;52.104;10.030;2022-10-17T03:38:40;100846.72;;;20.23;52.37
46199;BME280;31928;52.104;10.030;2022-10-17T03:41:06;100861.72;;;20.26;52.26
46199;BME280;31928;52.104;10.030;2022-10-17T03:43:33;100864.44;;;20.26;52.55
46199;BME280;31928;52.104;10.030;2022-10-17T03:46:00;100864.44;;;20.26;52.60
46199;BME280;31928;52.104;10.030;2022-10-17T03:48:27;100863.94;;;20.29;52.44
46199;BME280;31928;52.104;10.030;2022-10-17T03:50:58;100860.38;;;20.28;52.31
46199;BME280;31928;52.104;10.030;2022-10-17T03:53:24;100858.50;;;20.29;52.49
46199;BME280;31928;52.104;10.030;2022-10-17T03:55:50;100850.88;;;20.31;52.19
46199;BME280;31928;52.104;10.030;2022-10-17T03:58:17;100857.16;;;20.31;52.36
46199;BME280;31928;52.104;10.030;2022-10-17T04:00:43;100859.03;;;20.31;52.48
46199;BME280;31928;52.104;10.030;2022-10-17T04:03:10;100852.50;;;20.32;52.26
46199;BME280;31928;52.104;10.030;2022-10-17T04:05:42;100851.44;;;20.33;52.38
46199;BME280;31928;52.104;10.030;2022-10-17T04:08:08;100853.31;;;20.32;52.62
46199;BME280;31928;52.104;10.030;2022-10-17T04:10:35;100861.50;;;20.32;52.16
46199;BME280;31928;52.104;10.030;2022-10-17T04:13:01;100857.16;;;20.31;52.68
46199;BME280;31928;52.104;10.030;2022-10-17T04:15:28;100860.41;;;20.33;52.28
46199;BME280;31928;52.104;10.030;2022-10-17T04:17:54;100853.31;;;20.32;52.25
46199;BME280;31928;52.104;10.030;2022-10-17T04:20:21;100848.72;;;20.33;52.69
46199;BME280;31928;52.104;10.030;2022-10-17T04:22:54;100855.78;;;20.34;52.56
46199;BME280;31928;52.104;10.030;2022-10-17T04:25:20;100859.34;;;20.34;52.71
46199;BME280;31928;52.104;10.030;2022-10-17T04:27:46;100857.41;;;20.35;52.36
46199;BME280;31928;52.104;10.030;2022-10-17T04:30:14;100859.06;;;20.36;52.68
46199;BME280;31928;52.104;10.030;2022-10-17T04:32:41;100858.00;;;20.37;52.67
46199;BME280;31928;52.104;10.030;2022-10-17T04:35:08;100852.00;;;20.40;52.76
46199;BME280;31928;52.104;10.030;2022-10-17T04:37:34;100851.22;;;20.44;52.35
46199;BME280;31928;52.104;10.030;2022-10-17T04:40:00;100846.88;;;20.48;52.67
46199;BME280;31928;52.104;10.030;2022-10-17T04:42:27;100853.44;;;20.52;52.60
46199;BME280;31928;52.104;10.030;2022-10-17T04:44:54;100859.72;;;20.57;52.77
46199;BME280;31928;52.104;10.030;2022-10-17T04:47:21;100856.44;;;20.60;52.89
46199;BME280;31928;52.104;10.030;2022-10-17T04:49:47;100863.00;;;20.64;52.82
46199;BME280;31928;52.104;10.030;2022-10-17T04:52:13;100861.94;;;20.65;52.74
46199;BME280;31928;52.104;10.030;2022-10-17T04:54:40;100871.75;;;20.66;52.58
46199;BME280;31928;52.104;10.030;2022-10-17T04:57:06;100873.41;;;20.67;52.20
46199;BME280;31928;52.104;10.030;2022-10-17T04:59:33;100875.03;;;20.68;52.85
46199;BME280;31928;52.104;10.030;2022-10-17T05:01:59;100867.94;;;20.67;52.47
46199;BME280;31928;52.104;10.030;2022-10-17T05:04:26;100870.41;;;20.69;52.43
46199;BME280;31928;52.104;10.030;2022-10-17T05:06:52;100878.31;;;20.70;52.11
46199;BME280;31928;52.104;10.030;2022-10-17T05:09:19;100883.75;;;20.70;52.26
46199;BME280;31928;52.104;10.030;2022-10-17T05:11:45;100882.94;;;20.70;52.14
46199;BME280;31928;52.104;10.030;2022-10-17T05:14:12;100881.84;;;20.71;52.62
46199;BME280;31928;52.104;10.030;2022-10-17T05:16:38;100880.22;;;20.70;52.11
46199;BME280;31928;52.104;10.030;2022-10-17T05:19:05;100882.09;;;20.69;52.90
46199;BME280;31928;52.104;10.030;2022-10-17T05:21:31;100876.38;;;20.71;52.22
46199;BME280;31928;52.104;10.030;2022-10-17T05:24:18;100878.31;;;20.70;52.22
46199;BME280;31928;52.104;10.030;2022-10-17T05:26:44;100885.41;;;20.71;52.45
46199;BME280;31928;52.104;10.030;2022-10-17T05:29:10;100881.63;;;20.72;52.74
46199;BME280;31928;52.104;10.030;2022-10-17T05:31:37;100880.78;;;20.72;52.34
46199;BME280;31928;52.104;10.030;2022-10-17T05:34:04;100896.31;;;20.71;52.58
46199;BME280;31928;52.104;10.030;2022-10-17T05:36:35;100891.69;;;20.72;52.38
46199;BME280;31928;52.104;10.030;2022-10-17T05:39:01;100895.47;;;20.71;52.12
46199;BME280;31928;52.104;10.030;2022-10-17T05:41:28;100889.22;;;20.70;52.43
46199;BME280;31928;52.104;10.030;2022-10-17T05:43:54;100891.41;;;20.68;52.56
46199;BME280;31928;52.104;10.030;2022-10-17T05:46:21;100883.47;;;20.67;52.20
46199;BME280;31928;52.104;10.030;2022-10-17T05:48:47;100890.56;;;20.68;52.26
46199;BME280;31928;52.104;10.030;2022-10-17T05:51:14;100899.00;;;20.66;52.71
46199;BME280;31928;52.104;10.030;2022-10-17T05:53:40;100894.63;;;20.65;52.46
46199;BME280;31928;52.104;10.030;2022-10-17T05:56:08;100898.44;;;20.64;52.32
46199;BME280;31928;52.104;10.030;2022-10-17T05:58:35;100894.91;;;20.64;52.47
46199;BME280;31928;52.104;10.030;2022-10-17T06:01:16;100901.44;;;20.63;52.22
46199;BME280;31928;52.104;10.030;2022-10-17T06:03:43;100897.91;;;20.62;52.17
46199;BME280;31928;52.104;10.030;2022-10-17T06:06:10;100905.00;;;20.63;52.38
46199;BME280;31928;52.104;10.030;2022-10-17T06:08:37;100911.53;;;20.62;52.69
46199;BME280;31928;52.104;10.030;2022-10-17T06:11:04;100900.34;;;20.64;52.54
46199;BME280;31928;52.104;10.030;2022-10-17T06:13:35;100901.16;;;20.64;52.37
46199;BME280;31928;52.104;10.030;2022-10-17T06:16:01;100900.34;;;20.64;52.49
46199;BME280;31928;52.104;10.030;2022-10-17T06:18:28;100909.09;;;20.66;52.45
46199;BME280;31928;52.104;10.030;2022-10-17T06:21:00;100893.81;;;20.65;52.65
46199;BME280;31928;52.104;10.030;2022-10-17T06:23:26;100901.16;;;20.64;52.23
46199;BME280;31928;52.104;10.030;2022-10-17T06:25:56;100924.59;;;20.65;52.62
46199;BME280;31928;52.104;10.030;2022-10-17T06:28:22;100908.25;;;20.65;52.75
46199;BME280;31928;52.104;10.030;2022-10-17T06:30:49;100902.81;;;20.65;52.40
46199;BME280;31928;52.104;10.030;2022-10-17T06:33:15;100906.09;;;20.67;52.23
46199;BME280;31928;52.104;10.030;2022-10-17T06:35:43;100907.97;;;20.67;52.68
46199;BME280;31928;52.104;10.030;2022-10-17T06:38:09;100910.72;;;20.67;52.57
46199;BME280;31928;52.104;10.030;2022-10-17T06:40:36;100906.63;;;20.69;52.50
46199;BME280;31928;52.104;10.030;2022-10-17T06:43:02;100909.09;;;20.71;52.56
46199;BME280;31928;52.104;10.030;2022-10-17T06:45:28;100915.13;;;20.73;52.58
46199;BME280;31928;52.104;10.030;2022-10-17T06:47:55;100921.16;;;20.75;52.50
46199;BME280;31928;52.104;10.030;2022-10-17T06:50:21;100932.59;;;20.77;52.46
46199;BME280;31928;52.104;10.030;2022-10-17T06:52:51;100925.81;;;20.79;52.68
46199;BME280;31928;52.104;10.030;2022-10-17T06:55:17;100929.91;;;20.82;52.70
46199;BME280;31928;52.104;10.030;2022-10-17T06:57:48;100931.00;;;20.86;52.67
46199;BME280;31928;52.104;10.030;2022-10-17T07:00:17;100928.59;;;20.89;52.69
46199;BME280;31928;52.104;10.030;2022-10-17T07:02:43;100929.97;;;20.92;52.98
46199;BME280;31928;52.104;10.030;2022-10-17T07:05:09;100937.59;;;20.95;53.24
46199;BME280;31928;52.104;10.030;2022-10-17T07:07:36;100942.22;;;20.99;52.71
46199;BME280;31928;52.104;10.030;2022-10-17T07:10:08;100937.91;;;21.03;52.74
46199;BME280;31928;52.104;10.030;2022-10-17T07:12:34;100945.28;;;21.08;52.61
46199;BME280;31928;52.104;10.030;2022-10-17T07:15:02;100937.38;;;21.11;52.56
46199;BME280;31928;52.104;10.030;2022-10-17T07:17:29;100943.09;;;21.14;52.60
46199;BME280;31928;52.104;10.030;2022-10-17T07:19:56;100953.22;;;21.19;52.42
46199;BME280;31928;52.104;10.030;2022-10-17T07:22:23;100947.22;;;21.22;52.23
46199;BME280;31928;52.104;10.030;2022-10-17T07:24:49;100963.09;;;21.25;52.84
46199;BME280;31928;52.104;10.030;2022-10-17T07:27:16;100969.63;;;21.29;52.54
46199;BME280;31928;52.104;10.030;2022-10-17T07:29:42;100967.44;;;21.31;52.97
46199;BME280;31928;52.104;10.030;2022-10-17T07:32:09;100968.53;;;21.35;52.82
46199;BME280;31928;52.104;10.030;2022-10-17T07:34:35;100954.91;;;21.40;52.33
46199;BME280;31928;52.104;10.030;2022-10-17T07:37:02;100945.38;;;21.42;52.48
46199;BME280;31928;52.104;10.030;2022-10-17T07:39:29;100950.28;;;21.45;52.48
46199;BME280;31928;52.104;10.030;2022-10-17T07:41:55;100945.72;;;21.51;52.47
46199;BME280;31928;52.104;10.030;2022-10-17T07:44:22;100942.72;;;21.52;52.35
46199;BME280;31928;52.104;10.030;2022-10-17T07:46:48;100952.28;;;21.55;52.89
46199;BME280;31928;52.104;10.030;2022-10-17T07:49:14;100963.19;;;21.60;52.65
46199;BME280;31928;52.104;10.030;2022-10-17T07:51:41;100973.28;;;21.64;52.25
46199;BME280;31928;52.104;10.030;2022-10-17T07:54:07;100991.59;;;21.69;52.42
46199;BME280;31928;52.104;10.030;2022-10-17T07:56:34;100957.75;;;21.74;52.13
46199;BME280;31928;52.104;10.030;2022-10-17T07:59:01;100945.75;;;21.80;52.04
46199;BME280;31928;52.104;10.030;2022-10-17T08:01:33;100957.78;;;21.84;52.40
46199;BME280;31928;52.104;10.030;2022-10-17T08:03:59;100962.16;;;21.90;52.31
46199;BME280;31928;52.104;10.030;2022-10-17T08:06:26;100964.06;;;21.95;52.02
46199;BME280;31928;52.104;10.030;2022-10-17T08:08:53;100951.22;;;22.00;52.35
46199;BME280;31928;52.104;10.030;2022-10-17T08:11:20;100962.41;;;22.04;52.08
46199;BME280;31928;52.104;10.030;2022-10-17T08:13:47;100969.81;;;22.08;52.19
46199;BME280;31928;52.104;10.030;2022-10-17T08:16:14;100976.38;;;22.12;52.04
46199;BME280;31928;52.104;10.030;2022-10-17T08:18:41;100963.22;;;22.14;51.75
46199;BME280;31928;52.104;10.030;2022-10-17T08:21:09;100972.50;;;22.18;51.72
46199;BME280;31928;52.104;10.030;2022-10-17T08:23:36;100970.06;;;22.22;51.75
46199;BME280;31928;52.104;10.030;2022-10-17T08:26:03;100973.59;;;22.22;52.21
46199;BME280;31928;52.104;10.030;2022-10-17T08:28:30;100963.00;;;22.31;51.57
46199;BME280;31928;52.104;10.030;2022-10-17T08:31:06;100963.78;;;22.31;51.46
46199;BME280;31928;52.104;10.030;2022-10-17T08:33:33;100984.84;;;22.40;51.84
46199;BME280;31928;52.104;10.030;2022-10-17T08:36:00;100955.59;;;22.46;51.35
46199;BME280;31928;52.104;10.030;2022-10-17T08:38:30;100955.88;;;22.49;51.54
46199;BME280;31928;52.104;10.030;2022-10-17T08:46:27;100957.19;;;22.67;51.37
46199;BME280;31928;52.104;10.030;2022-10-17T08:48:56;100962.91;;;22.70;51.16
46199;BME280;31928;52.104;10.030;2022-10-17T08:51:25;100971.63;;;22.77;51.39
46199;BME280;31928;52.104;10.030;2022-10-17T08:56:32;100957.66;;;22.89;51.05
46199;BME280;31928;52.104;10.030;2022-10-17T08:59:19;100964.19;;;22.97;51.35
46199;BME280;31928;52.104;10.030;2022-10-17T09:07:13;100964.16;;;23.17;51.06
46199;BME280;31928;52.104;10.030;2022-10-17T09:12:34;100949.31;;;23.28;51.18
46199;BME280;31928;52.104;10.030;2022-10-17T09:18:02;100948.16;;;23.39;50.84
46199;BME280;31928;52.104;10.030;2022-10-17T09:20:35;100951.97;;;23.43;50.51
46199;BME280;31928;52.104;10.030;2022-10-17T09:23:04;100943.75;;;23.48;50.78
46199;BME280;31928;52.104;10.030;2022-10-17T09:25:40;100931.41;;;23.51;50.56
46199;BME280;31928;52.104;10.030;2022-10-17T09:28:18;100945.03;;;23.56;50.46
46199;BME280;31928;52.104;10.030;2022-10-17T09:33:26;100960.06;;;23.63;50.81
46199;BME280;31928;52.104;10.030;2022-10-17T09:36:21;100958.38;;;23.67;50.20
46199;BME280;31928;52.104;10.030;2022-10-17T09:38:52;100959.47;;;23.71;50.38
46199;BME280;31928;52.104;10.030;2022-10-17T09:41:25;100962.19;;;23.76;50.37
46199;BME280;31928;52.104;10.030;2022-10-17T09:44:22;100957.78;;;23.80;50.18
46199;BME280;31928;52.104;10.030;2022-10-17T09:53:28;100970.22;;;24.01;50.30
46199;BME280;31928;52.104;10.030;2022-10-17T09:56:17;100982.47;;;24.08;49.80
46199;BME280;31928;52.104;10.030;2022-10-17T10:04:52;100966.69;;;24.28;49.80
46199;BME280;31928;52.104;10.030;2022-10-17T10:10:47;100978.16;;;24.40;49.75
46199;BME280;31928;52.104;10.030;2022-10-17T10:13:25;100986.59;;;24.44;49.52
46199;BME280;31928;52.104;10.030;2022-10-17T10:16:45;100993.13;;;24.48;49.39
46199;BME280;31928;52.104;10.030;2022-10-17T10:21:53;100988.94;;;24.55;49.52
46199;BME280;31928;52.104;10.030;2022-10-17T10:24:20;100985.91;;;24.57;49.10
46199;BME280;31928;52.104;10.030;2022-10-17T10:26:55;100989.44;;;24.62;49.30
46199;BME280;31928;52.104;10.030;2022-10-17T10:31:54;100977.78;;;24.75;49.74
46199;BME280;31928;52.104;10.030;2022-10-17T10:34:28;100968.06;;;24.82;49.63
46199;BME280;31928;52.104;10.030;2022-10-17T10:37:00;100963.88;;;24.90;49.38
46199;BME280;31928;52.104;10.030;2022-10-17T10:41:57;100964.50;;;25.10;49.52
46199;BME280;31928;52.104;10.030;2022-10-17T10:44:25;100970.97;;;25.19;49.49
46199;BME280;31928;52.104;10.030;2022-10-17T10:47:08;100954.66;;;25.28;48.46
46199;BME280;31928;52.104;10.030;2022-10-17T10:49:39;100957.56;;;25.36;48.12
46199;BME280;31928;52.104;10.030;2022-10-17T10:52:06;100951.13;;;25.45;48.04
46199;BME280;31928;52.104;10.030;2022-10-17T10:54:35;100971.28;;;25.54;48.45
46199;BME280;31928;52.104;10.030;2022-10-17T10:57:03;100953.88;;;25.64;47.92
46199;BME280;31928;52.104;10.030;2022-10-17T10:59:45;100962.84;;;25.69;47.75
46199;BME280;31928;52.104;10.030;2022-10-17T11:02:34;100964.94;;;25.77;47.47
46199;BME280;31928;52.104;10.030;2022-10-17T11:07:52;100948.22;;;25.92;47.21
46199;BME280;31928;52.104;10.030;2022-10-17T11:10:25;100965.16;;;25.99;47.59
46199;BME280;31928;52.104;10.030;2022-10-17T11:13:10;100956.03;;;26.04;47.18
46199;BME280;31928;52.104;10.030;2022-10-17T11:18:06;100967.13;;;26.12;46.68
46199;BME280;31928;52.104;10.030;2022-10-17T11:23:20;101003.13;;;26.29;47.38
46199;BME280;31928;52.104;10.030;2022-10-17T11:25:49;100995.38;;;26.36;46.82
46199;BME280;31928;52.104;10.030;2022-10-17T11:28:17;100997.41;;;26.44;46.30
46199;BME280;31928;52.104;10.030;2022-10-17T11:33:19;100989.94;;;26.63;46.50
46199;BME280;31928;52.104;10.030;2022-10-17T11:35:47;100990.88;;;26.71;46.31
46199;BME280;31928;52.104;10.030;2022-10-17T11:40:43;100969.06;;;26.88;46.70
46199;BME280;31928;52.104;10.030;2022-10-17T11:43:13;100972.25;;;26.95;44.72
46199;BME280;31928;52.104;10.030;2022-10-17T11:45:45;100978.06;;;27.07;45.53
46199;BME280;31928;52.104;10.030;2022-10-17T11:48:31;100986.72;;;27.14;45.59
46199;BME280;31928;52.104;10.030;2022-10-17T11:51:18;100979.69;;;27.22;44.55
46199;BME280;31928;52.104;10.030;2022-10-17T11:54:10;100979.78;;;27.30;44.23
46199;BME280;31928;52.104;10.030;2022-10-17T11:56:45;100938.88;;;27.37;44.58
46199;BME280;31928;52.104;10.030;2022-10-17T12:01:59;100961.06;;;27.54;45.10
46199;BME280;31928;52.104;10.030;2022-10-17T12:12:22;100957.84;;;27.87;45.14
46199;BME280;31928;52.104;10.030;2022-10-17T12:14:49;100964.56;;;27.94;44.64
46199;BME280;31928;52.104;10.030;2022-10-17T12:17:24;100959.41;;;28.01;43.11
46199;BME280;31928;52.104;10.030;2022-10-17T12:19:53;100959.78;;;28.08;41.79
46199;BME280;31928;52.104;10.030;2022-10-17T12:22:45;100965.06;;;28.18;42.73
46199;BME280;31928;52.104;10.030;2022-10-17T12:25:22;100965.94;;;28.27;42.98
46199;BME280;31928;52.104;10.030;2022-10-17T12:27:49;100978.28;;;28.30;40.95
46199;BME280;31928;52.104;10.030;2022-10-17T12:35:34;100958.47;;;28.50;43.13
46199;BME280;31928;52.104;10.030;2022-10-17T12:45:47;100972.03;;;28.68;42.06
46199;BME280;31928;52.104;10.030;2022-10-17T12:51:16;100971.47;;;28.79;41.78
46199;BME280;31928;52.104;10.030;2022-10-17T12:54:10;100978.97;;;28.87;42.57
46199;BME280;31928;52.104;10.030;2022-10-17T12:56:41;100988.91;;;28.88;40.31
46199;BME280;31928;52.104;10.030;2022-10-17T12:59:10;100987.94;;;28.93;41.14
46199;BME280;31928;52.104;10.030;2022-10-17T13:01:39;100986.66;;;28.99;42.03
46199;BME280;31928;52.104;10.030;2022-10-17T13:04:09;100992.19;;;28.99;40.14
46199;BME280;31928;52.104;10.030;2022-10-17T13:06:37;100993.19;;;29.03;40.29
46199;BME280;31928;52.104;10.030;2022-10-17T13:09:17;101002.97;;;29.09;40.88
46199;BME280;31928;52.104;10.030;2022-10-17T13:11:45;101017.25;;;29.11;40.70
46199;BME280;31928;52.104;10.030;2022-10-17T13:14:15;101028.75;;;29.04;39.16
46199;BME280;31928;52.104;10.030;2022-10-17T13:19:20;101022.91;;;28.97;37.80
46199;BME280;31928;52.104;10.030;2022-10-17T13:21:49;101037.50;;;28.98;39.41
46199;BME280;31928;52.104;10.030;2022-10-17T13:26:48;101019.88;;;28.85;39.14
46199;BME280;31928;52.104;10.030;2022-10-17T13:29:15;101034.53;;;28.86;39.88
46199;BME280;31928;52.104;10.030;2022-10-17T13:31:42;101036.09;;;28.78;39.24
46199;BME280;31928;52.104;10.030;2022-10-17T13:34:16;101034.31;;;28.74;40.11
46199;BME280;31928;52.104;10.030;2022-10-17T13:36:45;101053.34;;;28.62;38.24
46199;BME280;31928;52.104;10.030;2022-10-17T13:39:14;101043.28;;;28.66;40.31
46199;BME280;31928;52.104;10.030;2022-10-17T13:41:53;101051.34;;;28.54;39.08
46199;BME280;31928;52.104;10.030;2022-10-17T13:44:21;101041.94;;;28.55;40.35
46199;BME280;31928;52.104;10.030;2022-10-17T13:46:48;101040.09;;;28.51;40.68
46199;BME280;31928;52.104;10.030;2022-10-17T13:51:53;101051.22;;;28.37;39.41
46199;BME280;31928;52.104;10.030;2022-10-17T13:56:56;101028.47;;;28.32;40.42
46199;BME280;31928;52.104;10.030;2022-10-17T13:59:35;101043.50;;;28.26;40.01
46199;BME280;31928;52.104;10.030;2022-10-17T14:02:03;101038.78;;;28.26;40.80
46199;BME280;31928;52.104;10.030;2022-10-17T14:04:31;101032.28;;;28.22;41.13
46199;BME280;31928;52.104;10.030;2022-10-17T14:08:01;101053.34;;;28.18;41.13
46199;BME280;31928;52.104;10.030;2022-10-17T14:12:57;101049.25;;;28.16;41.82
46199;BME280;31928;52.104;10.030;2022-10-17T14:15:26;101049.06;;;28.12;41.42
46199;BME280;31928;52.104;10.030;2022-10-17T14:17:57;101044.66;;;28.11;42.03
46199;BME280;31928;52.104;10.030;2022-10-17T14:20:25;101047.41;;;28.11;42.20
46199;BME280;31928;52.104;10.030;2022-10-17T14:26:02;101054.16;;;28.05;40.48
46199;BME280;31928;52.104;10.030;2022-10-17T14:28:29;101041.69;;;28.08;41.35
46199;BME280;31928;52.104;10.030;2022-10-17T14:31:07;101044.78;;;28.06;41.38
46199;BME280;31928;52.104;10.030;2022-10-17T14:33:34;101048.66;;;28.05;41.32
46199;BME280;31928;52.104;10.030;2022-10-17T14:36:06;101056.94;;;28.05;41.41
46199;BME280;31928;52.104;10.030;2022-10-17T14:38:32;101057.75;;;28.06;42.35
46199;BME280;31928;52.104;10.030;2022-10-17T14:43:55;101060.94;;;27.99;41.75
46199;BME280;31928;52.104;10.030;2022-10-17T14:46:22;101056.56;;;27.98;42.38
46199;BME280;31928;52.104;10.030;2022-10-17T14:48:56;101061.53;;;27.96;42.29
46199;BME280;31928;52.104;10.030;2022-10-17T14:51:23;101072.56;;;27.96;42.27
46199;BME280;31928;52.104;10.030;2022-10-17T14:54:00;101076.75;;;27.94;42.43
46199;BME280;31928;52.104;10.030;2022-10-17T14:56:35;101067.69;;;27.93;42.54
46199;BME280;31928;52.104;10.030;2022-10-17T14:59:02;101077.91;;;27.93;42.51
46199;BME280;31928;52.104;10.030;2022-10-17T15:01:36;101073.84;;;27.91;42.17
46199;BME280;31928;52.104;10.030;2022-10-17T15:04:02;101084.84;;;27.91;42.11
46199;BME280;31928;52.104;10.030;2022-10-17T15:06:30;101083.22;;;27.90;42.75
46199;BME280;31928;52.104;10.030;2022-10-17T15:08:57;101077.72;;;27.90;42.79
46199;BME280;31928;52.104;10.030;2022-10-17T15:11:24;101085.47;;;27.88;42.77